Samantha, Ohio
Current Conditions -  °F | °C
As of 8:54 PM on Friday 19 Dec 2014 (Local Time) from KILN Reporting Station
Overcast Overcast  
Wind Chill: 23°   Ceiling: 1800
Heat Index: 29°   Visibility: 10mi
Dew Point: 21°   Wind: 6mph
Humidity: 72%   Direction: 90°E
Pressure: 30.27"   Gusts: NA
Location:  39.3503°N, 83.5434°W
Report Text: KILN 200154Z AUTO 09005KT 10SM OVC018 M02/M06 A3027 RMK AO2 SLP281 T10171061
Loading
Personal Weather Stations






























Interactive Weather Map New forecast layout! Learn more

10-Day Weather Forecast

Advertisements
Track Severe Weather on mobile